Terminal Aerodrome Forecast
Issued by NWS

Home | Current Version | Previous Version | Text Only | Print | Product List | Glossary On
Versions: 1 2 3 4 5 6 7 8 9 10 11 12 13 14 15 16 17 18 19
725
FTUS46 KLOX 092351
TAFOXR
TAF
KOXR 092351Z 1000/1024 27010KT 5SM BR BKN015 OVC025
      TEMPO 1000/1003 1SM -DZ OVC005
     FM100300 27006KT 3SM BR BKN015 OVC025
     FM101200 VRB03KT 5SM BR VCSH OVC015
     FM101800 27008KT P6SM OVC025
     FM102200 27012KT P6SM BKN025 BKN040=

USA.gov is the U.S. government's official web portal to all federal, state and local government web resources and services.